sensor_id;sensor_type;location;lat;lon;timestamp;noise_LAeq;noise_LA_min;noise_LA_max;noise_LA01;noise_LA95
66461;Laerm;56838;52.506;4.762;2022-12-07T00:00:02;35.62;32.75;47.17;;
66461;Laerm;56838;52.506;4.762;2022-12-07T00:00:12;35.56;32.87;42.67;;
66461;Laerm;56838;52.506;4.762;2022-12-07T00:00:23;38.09;32.63;58.03;;
66461;Laerm;56838;52.506;4.762;2022-12-07T00:00:33;34.36;32.08;39.10;;
66461;Laerm;56838;52.506;4.762;2022-12-07T00:00:44;34.33;32.14;42.58;;
66461;Laerm;56838;52.506;4.762;2022-12-07T00:00:54;34.06;32.32;42.62;;
66461;Laerm;56838;52.506;4.762;2022-12-07T00:01:29;34.27;32.30;41.43;;
66461;Laerm;56838;52.506;4.762;2022-12-07T00:01:40;35.48;32.73;49.74;;
66461;Laerm;56838;52.506;4.762;2022-12-07T00:01:51;34.64;32.80;41.37;;
66461;Laerm;56838;52.506;4.762;2022-12-07T00:02:01;36.07;32.49;52.48;;
66461;Laerm;56838;52.506;4.762;2022-12-07T00:02:12;34.58;32.77;40.67;;
66461;Laerm;56838;52.506;4.762;2022-12-07T00:02:22;34.44;32.90;42.77;;
66461;Laerm;56838;52.506;4.762;2022-12-07T00:02:33;34.51;32.31;45.73;;
66461;Laerm;56838;52.506;4.762;2022-12-07T00:02:43;34.51;32.56;43.14;;
66461;Laerm;56838;52.506;4.762;2022-12-07T00:02:53;34.88;32.67;48.33;;
66461;Laerm;56838;52.506;4.762;2022-12-07T00:03:04;34.63;31.96;48.63;;
66461;Laerm;56838;52.506;4.762;2022-12-07T00:03:14;34.95;32.83;48.95;;
66461;Laerm;56838;52.506;4.762;2022-12-07T00:03:24;35.62;32.83;50.96;;
66461;Laerm;56838;52.506;4.762;2022-12-07T00:03:35;36.51;33.17;53.23;;
66461;Laerm;56838;52.506;4.762;2022-12-07T00:03:46;34.47;33.00;37.96;;
66461;Laerm;56838;52.506;4.762;2022-12-07T00:03:58;36.40;34.09;45.76;;
66461;Laerm;56838;52.506;4.762;2022-12-07T00:04:15;37.26;33.85;48.32;;
66461;Laerm;56838;52.506;4.762;2022-12-07T00:04:26;36.56;34.15;50.25;;
66461;Laerm;56838;52.506;4.762;2022-12-07T00:04:36;38.96;35.36;49.53;;
66461;Laerm;56838;52.506;4.762;2022-12-07T00:04:48;42.01;39.56;52.73;;
66461;Laerm;56838;52.506;4.762;2022-12-07T00:04:58;42.66;40.53;50.29;;
66461;Laerm;56838;52.506;4.762;2022-12-07T00:05:08;41.54;39.87;48.34;;
66461;Laerm;56838;52.506;4.762;2022-12-07T00:05:19;43.08;40.28;47.24;;
66461;Laerm;56838;52.506;4.762;2022-12-07T00:05:29;43.60;41.42;51.59;;
66461;Laerm;56838;52.506;4.762;2022-12-07T00:05:40;41.62;39.80;48.29;;
66461;Laerm;56838;52.506;4.762;2022-12-07T00:05:50;45.65;40.76;49.58;;
66461;Laerm;56838;52.506;4.762;2022-12-07T00:06:01;45.91;42.72;51.65;;
66461;Laerm;56838;52.506;4.762;2022-12-07T00:06:12;42.45;40.56;47.29;;
66461;Laerm;56838;52.506;4.762;2022-12-07T00:06:23;44.20;40.79;48.93;;
66461;Laerm;56838;52.506;4.762;2022-12-07T00:06:34;44.64;40.80;47.83;;
66461;Laerm;56838;52.506;4.762;2022-12-07T00:06:46;45.57;43.90;52.89;;
66461;Laerm;56838;52.506;4.762;2022-12-07T00:06:56;43.97;41.88;47.67;;
66461;Laerm;56838;52.506;4.762;2022-12-07T00:07:07;46.69;44.18;56.56;;
66461;Laerm;56838;52.506;4.762;2022-12-07T00:07:17;46.71;44.72;50.84;;
66461;Laerm;56838;52.506;4.762;2022-12-07T00:07:27;49.71;46.24;58.94;;
66461;Laerm;56838;52.506;4.762;2022-12-07T00:07:38;46.32;43.40;49.30;;
66461;Laerm;56838;52.506;4.762;2022-12-07T00:07:48;44.89;42.87;56.98;;
66461;Laerm;56838;52.506;4.762;2022-12-07T00:07:59;44.55;41.62;57.02;;
66461;Laerm;56838;52.506;4.762;2022-12-07T00:08:09;45.92;39.30;63.96;;
66461;Laerm;56838;52.506;4.762;2022-12-07T00:08:19;39.46;35.58;50.31;;
66461;Laerm;56838;52.506;4.762;2022-12-07T00:08:30;39.22;35.25;52.57;;
66461;Laerm;56838;52.506;4.762;2022-12-07T00:08:41;39.07;35.52;54.78;;
66461;Laerm;56838;52.506;4.762;2022-12-07T00:08:52;38.27;33.79;54.75;;
66461;Laerm;56838;52.506;4.762;2022-12-07T00:09:03;36.84;33.14;47.86;;
66461;Laerm;56838;52.506;4.762;2022-12-07T00:09:14;36.52;33.19;47.07;;
66461;Laerm;56838;52.506;4.762;2022-12-07T00:09:25;37.99;33.26;52.49;;
66461;Laerm;56838;52.506;4.762;2022-12-07T00:09:36;38.05;33.54;53.45;;
66461;Laerm;56838;52.506;4.762;2022-12-07T00:09:47;39.01;33.88;48.32;;
66461;Laerm;56838;52.506;4.762;2022-12-07T00:09:57;42.65;39.71;54.51;;
66461;Laerm;56838;52.506;4.762;2022-12-07T00:10:08;41.00;38.48;44.81;;
66461;Laerm;56838;52.506;4.762;2022-12-07T00:10:18;40.97;38.41;53.10;;
66461;Laerm;56838;52.506;4.762;2022-12-07T00:10:28;41.40;39.01;45.40;;
66461;Laerm;56838;52.506;4.762;2022-12-07T00:10:39;42.47;39.88;48.88;;
66461;Laerm;56838;52.506;4.762;2022-12-07T00:10:49;41.79;39.13;51.64;;
66461;Laerm;56838;52.506;4.762;2022-12-07T00:11:07;40.85;37.94;52.83;;
66461;Laerm;56838;52.506;4.762;2022-12-07T00:11:19;39.99;34.73;52.30;;
66461;Laerm;56838;52.506;4.762;2022-12-07T00:11:30;38.36;34.22;51.07;;
66461;Laerm;56838;52.506;4.762;2022-12-07T00:11:40;36.34;33.51;46.94;;
66461;Laerm;56838;52.506;4.762;2022-12-07T00:11:51;36.28;32.92;44.78;;
66461;Laerm;56838;52.506;4.762;2022-12-07T00:12:01;38.30;32.46;57.60;;
66461;Laerm;56838;52.506;4.762;2022-12-07T00:12:11;35.93;32.29;46.35;;
66461;Laerm;56838;52.506;4.762;2022-12-07T00:12:22;36.86;32.80;51.30;;
66461;Laerm;56838;52.506;4.762;2022-12-07T00:12:32;36.23;32.74;46.95;;
66461;Laerm;56838;52.506;4.762;2022-12-07T00:12:42;35.77;32.70;44.99;;
66461;Laerm;56838;52.506;4.762;2022-12-07T00:12:53;36.35;32.60;45.25;;
66461;Laerm;56838;52.506;4.762;2022-12-07T00:13:03;36.27;32.86;47.27;;
66461;Laerm;56838;52.506;4.762;2022-12-07T00:13:13;35.64;32.46;44.48;;
66461;Laerm;56838;52.506;4.762;2022-12-07T00:13:24;36.22;32.70;48.54;;
66461;Laerm;56838;52.506;4.762;2022-12-07T00:13:34;36.03;32.79;47.23;;
66461;Laerm;56838;52.506;4.762;2022-12-07T00:13:46;36.04;33.12;47.88;;
66461;Laerm;56838;52.506;4.762;2022-12-07T00:13:58;36.09;33.10;45.16;;
66461;Laerm;56838;52.506;4.762;2022-12-07T00:14:12;35.48;32.71;42.59;;
66461;Laerm;56838;52.506;4.762;2022-12-07T00:14:23;35.85;32.63;46.32;;
66461;Laerm;56838;52.506;4.762;2022-12-07T00:14:33;35.34;32.69;43.93;;
66461;Laerm;56838;52.506;4.762;2022-12-07T00:14:44;35.66;32.57;45.26;;
66461;Laerm;56838;52.506;4.762;2022-12-07T00:14:54;37.50;33.17;51.42;;
66461;Laerm;56838;52.506;4.762;2022-12-07T00:15:04;37.82;34.04;50.73;;
66461;Laerm;56838;52.506;4.762;2022-12-07T00:15:15;37.65;33.89;50.75;;
66461;Laerm;56838;52.506;4.762;2022-12-07T00:15:25;39.52;35.91;47.52;;
66461;Laerm;56838;52.506;4.762;2022-12-07T00:15:36;41.12;38.33;48.92;;
66461;Laerm;56838;52.506;4.762;2022-12-07T00:15:46;38.44;33.71;51.00;;
66461;Laerm;56838;52.506;4.762;2022-12-07T00:15:59;36.69;33.94;45.90;;
66461;Laerm;56838;52.506;4.762;2022-12-07T00:16:12;40.72;34.90;48.88;;
66461;Laerm;56838;52.506;4.762;2022-12-07T00:16:23;40.89;38.55;50.36;;
66461;Laerm;56838;52.506;4.762;2022-12-07T00:16:34;41.64;38.65;45.38;;
66461;Laerm;56838;52.506;4.762;2022-12-07T00:16:45;39.43;33.83;46.35;;
66461;Laerm;56838;52.506;4.762;2022-12-07T00:16:55;37.03;33.96;49.57;;
66461;Laerm;56838;52.506;4.762;2022-12-07T00:17:06;37.03;33.59;48.33;;
66461;Laerm;56838;52.506;4.762;2022-12-07T00:17:16;37.34;34.04;48.86;;
66461;Laerm;56838;52.506;4.762;2022-12-07T00:17:26;36.75;33.58;49.14;;
66461;Laerm;56838;52.506;4.762;2022-12-07T00:17:36;36.24;33.17;49.12;;
66461;Laerm;56838;52.506;4.762;2022-12-07T00:17:47;35.80;32.72;49.16;;
66461;Laerm;56838;52.506;4.762;2022-12-07T00:17:57;36.13;33.16;48.57;;
66461;Laerm;56838;52.506;4.762;2022-12-07T00:18:07;36.68;33.36;43.82;;
66461;Laerm;56838;52.506;4.762;2022-12-07T00:18:18;35.66;33.09;50.93;;
66461;Laerm;56838;52.506;4.762;2022-12-07T00:18:28;35.84;32.34;47.59;;
66461;Laerm;56838;52.506;4.762;2022-12-07T00:18:39;35.87;32.57;48.76;;
66461;Laerm;56838;52.506;4.762;2022-12-07T00:18:50;36.40;33.10;51.89;;
66461;Laerm;56838;52.506;4.762;2022-12-07T00:19:00;35.76;32.93;46.50;;
66461;Laerm;56838;52.506;4.762;2022-12-07T00:19:12;36.73;32.65;53.03;;
66461;Laerm;56838;52.506;4.762;2022-12-07T00:19:23;34.97;32.17;42.58;;
66461;Laerm;56838;52.506;4.762;2022-12-07T00:19:34;36.48;32.68;49.45;;
66461;Laerm;56838;52.506;4.762;2022-12-07T00:19:44;36.70;32.65;47.64;;
66461;Laerm;56838;52.506;4.762;2022-12-07T00:19:54;35.71;32.90;46.66;;
66461;Laerm;56838;52.506;4.762;2022-12-07T00:20:05;35.54;32.42;43.82;;
66461;Laerm;56838;52.506;4.762;2022-12-07T00:20:15;34.95;32.64;40.71;;
66461;Laerm;56838;52.506;4.762;2022-12-07T00:20:26;36.27;32.45;47.92;;
66461;Laerm;56838;52.506;4.762;2022-12-07T00:20:36;37.06;32.37;55.86;;
66461;Laerm;56838;52.506;4.762;2022-12-07T00:20:47;34.93;32.38;44.71;;
66461;Laerm;56838;52.506;4.762;2022-12-07T00:21:04;40.19;33.37;54.10;;
66461;Laerm;56838;52.506;4.762;2022-12-07T00:21:16;36.87;32.16;48.88;;
66461;Laerm;56838;52.506;4.762;2022-12-07T00:21:28;38.49;34.61;47.64;;
66461;Laerm;56838;52.506;4.762;2022-12-07T00:21:38;37.79;33.99;50.54;;
66461;Laerm;56838;52.506;4.762;2022-12-07T00:21:49;34.92;32.18;46.05;;
66461;Laerm;56838;52.506;4.762;2022-12-07T00:21:59;34.84;32.26;49.65;;
66461;Laerm;56838;52.506;4.762;2022-12-07T00:22:10;35.86;31.29;49.47;;
66461;Laerm;56838;52.506;4.762;2022-12-07T00:22:20;35.36;32.12;43.45;;
66461;Laerm;56838;52.506;4.762;2022-12-07T00:22:30;35.92;32.50;49.61;;
66461;Laerm;56838;52.506;4.762;2022-12-07T00:22:41;36.69;32.63;56.12;;
66461;Laerm;56838;52.506;4.762;2022-12-07T00:22:51;35.40;32.41;46.70;;
66461;Laerm;56838;52.506;4.762;2022-12-07T00:23:01;35.12;32.76;45.50;;
66461;Laerm;56838;52.506;4.762;2022-12-07T00:23:12;35.59;32.44;46.74;;
66461;Laerm;56838;52.506;4.762;2022-12-07T00:23:22;34.93;32.21;44.64;;
66461;Laerm;56838;52.506;4.762;2022-12-07T00:23:33;37.78;33.82;53.87;;
66461;Laerm;56838;52.506;4.762;2022-12-07T00:23:44;38.14;35.54;44.11;;
66461;Laerm;56838;52.506;4.762;2022-12-07T00:23:55;35.82;32.84;46.92;;
66461;Laerm;56838;52.506;4.762;2022-12-07T00:24:06;34.96;32.32;43.99;;
66461;Laerm;56838;52.506;4.762;2022-12-07T00:24:16;34.53;32.22;41.02;;
66461;Laerm;56838;52.506;4.762;2022-12-07T00:24:27;35.09;32.76;47.44;;
66461;Laerm;56838;52.506;4.762;2022-12-07T00:24:37;35.84;32.41;48.96;;
66461;Laerm;56838;52.506;4.762;2022-12-07T00:24:47;35.83;32.47;50.59;;
66461;Laerm;56838;52.506;4.762;2022-12-07T00:24:58;35.78;32.38;50.78;;
66461;Laerm;56838;52.506;4.762;2022-12-07T00:25:08;35.95;32.40;48.36;;
66461;Laerm;56838;52.506;4.762;2022-12-07T00:25:18;34.87;32.54;43.64;;
66461;Laerm;56838;52.506;4.762;2022-12-07T00:25:29;35.86;32.28;52.68;;
66461;Laerm;56838;52.506;4.762;2022-12-07T00:25:40;35.16;32.48;46.04;;
66461;Laerm;56838;52.506;4.762;2022-12-07T00:25:50;34.41;32.23;43.09;;
66461;Laerm;56838;52.506;4.762;2022-12-07T00:26:11;35.07;32.06;45.42;;
66461;Laerm;56838;52.506;4.762;2022-12-07T00:26:23;35.91;31.97;55.98;;
66461;Laerm;56838;52.506;4.762;2022-12-07T00:26:35;35.17;32.52;43.45;;
66461;Laerm;56838;52.506;4.762;2022-12-07T00:26:45;35.71;32.28;46.10;;
66461;Laerm;56838;52.506;4.762;2022-12-07T00:26:55;35.18;32.31;47.96;;
66461;Laerm;56838;52.506;4.762;2022-12-07T00:27:06;35.82;32.63;45.71;;
66461;Laerm;56838;52.506;4.762;2022-12-07T00:27:16;36.05;32.78;44.11;;
66461;Laerm;56838;52.506;4.762;2022-12-07T00:27:27;35.80;32.48;48.66;;
66461;Laerm;56838;52.506;4.762;2022-12-07T00:27:38;34.91;32.58;44.49;;
66461;Laerm;56838;52.506;4.762;2022-12-07T00:27:48;34.81;32.46;48.97;;
66461;Laerm;56838;52.506;4.762;2022-12-07T00:27:58;35.21;31.89;47.52;;
66461;Laerm;56838;52.506;4.762;2022-12-07T00:28:09;35.20;32.32;50.23;;
66461;Laerm;56838;52.506;4.762;2022-12-07T00:28:20;35.10;32.82;45.51;;
66461;Laerm;56838;52.506;4.762;2022-12-07T00:28:31;34.55;32.00;44.14;;
66461;Laerm;56838;52.506;4.762;2022-12-07T00:28:44;36.22;32.30;43.50;;
66461;Laerm;56838;52.506;4.762;2022-12-07T00:28:56;39.15;36.24;45.57;;
66461;Laerm;56838;52.506;4.762;2022-12-07T00:29:09;36.87;33.41;48.30;;
66461;Laerm;56838;52.506;4.762;2022-12-07T00:29:21;35.38;32.80;48.87;;
66461;Laerm;56838;52.506;4.762;2022-12-07T00:29:33;34.81;32.34;46.63;;
66461;Laerm;56838;52.506;4.762;2022-12-07T00:29:43;33.95;31.85;41.37;;
66461;Laerm;56838;52.506;4.762;2022-12-07T00:29:54;34.85;31.72;45.48;;
66461;Laerm;56838;52.506;4.762;2022-12-07T00:30:05;35.65;32.72;48.34;;
66461;Laerm;56838;52.506;4.762;2022-12-07T00:30:16;34.76;32.52;44.41;;
66461;Laerm;56838;52.506;4.762;2022-12-07T00:30:26;34.53;31.88;44.78;;
66461;Laerm;56838;52.506;4.762;2022-12-07T00:30:37;36.82;33.31;47.87;;
66461;Laerm;56838;52.506;4.762;2022-12-07T00:30:48;39.92;36.84;47.02;;
66461;Laerm;56838;52.506;4.762;2022-12-07T00:31:05;38.68;34.21;44.54;;
66461;Laerm;56838;52.506;4.762;2022-12-07T00:31:17;35.74;33.42;49.15;;
66461;Laerm;56838;52.506;4.762;2022-12-07T00:31:30;35.74;32.66;48.16;;
66461;Laerm;56838;52.506;4.762;2022-12-07T00:31:43;34.93;32.03;50.60;;
66461;Laerm;56838;52.506;4.762;2022-12-07T00:31:53;34.07;32.02;41.82;;
66461;Laerm;56838;52.506;4.762;2022-12-07T00:32:04;34.63;31.78;47.06;;
66461;Laerm;56838;52.506;4.762;2022-12-07T00:32:14;34.91;31.84;49.10;;
66461;Laerm;56838;52.506;4.762;2022-12-07T00:32:25;34.87;31.77;49.16;;
66461;Laerm;56838;52.506;4.762;2022-12-07T00:32:35;34.28;31.87;40.69;;
66461;Laerm;56838;52.506;4.762;2022-12-07T00:32:45;33.83;31.93;41.29;;
66461;Laerm;56838;52.506;4.762;2022-12-07T00:32:56;34.19;31.93;43.66;;
66461;Laerm;56838;52.506;4.762;2022-12-07T00:33:06;36.89;32.49;53.78;;
66461;Laerm;56838;52.506;4.762;2022-12-07T00:33:16;33.98;31.94;41.70;;
66461;Laerm;56838;52.506;4.762;2022-12-07T00:33:27;34.28;32.01;42.74;;
66461;Laerm;56838;52.506;4.762;2022-12-07T00:33:38;34.70;31.61;50.79;;
66461;Laerm;56838;52.506;4.762;2022-12-07T00:33:49;34.13;31.88;41.22;;
66461;Laerm;56838;52.506;4.762;2022-12-07T00:34:00;34.01;32.26;43.71;;
66461;Laerm;56838;52.506;4.762;2022-12-07T00:34:14;34.10;32.06;43.46;;
66461;Laerm;56838;52.506;4.762;2022-12-07T00:34:25;34.13;32.20;45.28;;
66461;Laerm;56838;52.506;4.762;2022-12-07T00:34:35;34.26;31.53;44.57;;
66461;Laerm;56838;52.506;4.762;2022-12-07T00:34:45;34.37;32.33;45.67;;
66461;Laerm;56838;52.506;4.762;2022-12-07T00:34:56;34.02;31.99;40.63;;
66461;Laerm;56838;52.506;4.762;2022-12-07T00:35:06;34.58;31.96;49.99;;
66461;Laerm;56838;52.506;4.762;2022-12-07T00:35:17;35.07;31.87;46.75;;
66461;Laerm;56838;52.506;4.762;2022-12-07T00:35:27;34.80;31.55;49.05;;
66461;Laerm;56838;52.506;4.762;2022-12-07T00:35:37;33.99;31.66;45.34;;
66461;Laerm;56838;52.506;4.762;2022-12-07T00:35:54;33.82;31.91;39.72;;
66461;Laerm;56838;52.506;4.762;2022-12-07T00:36:06;34.55;31.86;50.38;;
66461;Laerm;56838;52.506;4.762;2022-12-07T00:36:18;33.76;31.70;45.24;;
66461;Laerm;56838;52.506;4.762;2022-12-07T00:36:28;34.53;31.73;48.32;;
66461;Laerm;56838;52.506;4.762;2022-12-07T00:36:39;33.92;31.69;43.22;;
66461;Laerm;56838;52.506;4.762;2022-12-07T00:36:50;33.91;32.03;44.44;;
66461;Laerm;56838;52.506;4.762;2022-12-07T00:37:00;33.93;31.90;43.48;;
66461;Laerm;56838;52.506;4.762;2022-12-07T00:37:11;34.34;31.90;48.34;;
66461;Laerm;56838;52.506;4.762;2022-12-07T00:37:22;34.58;32.17;46.10;;
66461;Laerm;56838;52.506;4.762;2022-12-07T00:37:33;34.21;32.52;41.18;;
66461;Laerm;56838;52.506;4.762;2022-12-07T00:37:43;34.50;32.02;45.52;;
66461;Laerm;56838;52.506;4.762;2022-12-07T00:37:53;34.10;32.04;42.51;;
66461;Laerm;56838;52.506;4.762;2022-12-07T00:38:04;35.50;32.32;53.09;;
66461;Laerm;56838;52.506;4.762;2022-12-07T00:38:14;34.45;32.35;43.46;;
66461;Laerm;56838;52.506;4.762;2022-12-07T00:38:27;34.38;32.44;45.67;;
66461;Laerm;56838;52.506;4.762;2022-12-07T00:38:37;34.71;32.13;46.52;;
66461;Laerm;56838;52.506;4.762;2022-12-07T00:38:48;34.00;32.13;40.15;;
66461;Laerm;56838;52.506;4.762;2022-12-07T00:38:59;34.27;32.44;39.80;;
66461;Laerm;56838;52.506;4.762;2022-12-07T00:39:09;35.23;32.64;39.65;;
66461;Laerm;56838;52.506;4.762;2022-12-07T00:39:19;36.36;33.00;49.65;;
66461;Laerm;56838;52.506;4.762;2022-12-07T00:39:30;39.92;35.68;57.33;;
66461;Laerm;56838;52.506;4.762;2022-12-07T00:39:40;36.73;33.93;48.82;;
66461;Laerm;56838;52.506;4.762;2022-12-07T00:39:51;35.06;32.64;47.27;;
66461;Laerm;56838;52.506;4.762;2022-12-07T00:40:01;34.77;32.63;42.85;;
66461;Laerm;56838;52.506;4.762;2022-12-07T00:40:12;35.15;32.40;49.05;;
66461;Laerm;56838;52.506;4.762;2022-12-07T00:40:22;34.92;32.26;46.83;;
66461;Laerm;56838;52.506;4.762;2022-12-07T00:40:33;34.43;32.40;42.88;;
66461;Laerm;56838;52.506;4.762;2022-12-07T00:40:43;34.65;32.69;44.35;;
66461;Laerm;56838;52.506;4.762;2022-12-07T00:40:54;34.77;32.36;47.41;;
66461;Laerm;56838;52.506;4.762;2022-12-07T00:41:14;34.23;32.22;37.75;;
66461;Laerm;56838;52.506;4.762;2022-12-07T00:41:26;35.57;32.39;54.05;;
66461;Laerm;56838;52.506;4.762;2022-12-07T00:41:37;34.70;32.06;43.59;;
66461;Laerm;56838;52.506;4.762;2022-12-07T00:41:47;34.55;32.33;44.28;;
66461;Laerm;56838;52.506;4.762;2022-12-07T00:41:57;35.44;32.54;49.57;;
66461;Laerm;56838;52.506;4.762;2022-12-07T00:42:08;35.38;33.16;44.09;;
66461;Laerm;56838;52.506;4.762;2022-12-07T00:42:18;35.21;32.56;48.38;;
66461;Laerm;56838;52.506;4.762;2022-12-07T00:42:28;34.64;32.48;44.01;;
66461;Laerm;56838;52.506;4.762;2022-12-07T00:42:39;35.17;32.94;43.30;;
66461;Laerm;56838;52.506;4.762;2022-12-07T00:42:49;36.91;33.40;47.94;;
66461;Laerm;56838;52.506;4.762;2022-12-07T00:42:59;35.79;34.00;41.25;;
66461;Laerm;56838;52.506;4.762;2022-12-07T00:43:10;36.26;34.15;44.45;;
66461;Laerm;56838;52.506;4.762;2022-12-07T00:43:20;44.84;35.79;61.83;;
66461;Laerm;56838;52.506;4.762;2022-12-07T00:43:31;43.09;38.54;57.69;;
66461;Laerm;56838;52.506;4.762;2022-12-07T00:43:41;45.62;39.48;56.11;;
66461;Laerm;56838;52.506;4.762;2022-12-07T00:43:54;50.38;43.59;59.14;;
66461;Laerm;56838;52.506;4.762;2022-12-07T00:44:05;45.55;42.76;49.52;;
66461;Laerm;56838;52.506;4.762;2022-12-07T00:44:15;47.40;42.90;60.81;;
66461;Laerm;56838;52.506;4.762;2022-12-07T00:44:25;45.44;39.45;54.96;;
66461;Laerm;56838;52.506;4.762;2022-12-07T00:44:36;43.11;39.31;51.13;;
66461;Laerm;56838;52.506;4.762;2022-12-07T00:44:46;44.59;40.73;53.81;;
66461;Laerm;56838;52.506;4.762;2022-12-07T00:44:56;45.87;43.94;59.36;;
66461;Laerm;56838;52.506;4.762;2022-12-07T00:45:07;51.52;45.07;61.05;;
66461;Laerm;56838;52.506;4.762;2022-12-07T00:45:17;50.71;44.41;57.32;;
66461;Laerm;56838;52.506;4.762;2022-12-07T00:45:28;50.73;39.32;65.42;;
66461;Laerm;56838;52.506;4.762;2022-12-07T00:45:38;48.96;37.76;66.11;;
66461;Laerm;56838;52.506;4.762;2022-12-07T00:45:49;48.41;41.37;59.50;;
66461;Laerm;56838;52.506;4.762;2022-12-07T00:45:59;48.64;44.97;59.36;;
66461;Laerm;56838;52.506;4.762;2022-12-07T00:46:09;46.40;43.95;49.81;;
66461;Laerm;56838;52.506;4.762;2022-12-07T00:46:20;50.03;45.85;53.66;;
66461;Laerm;56838;52.506;4.762;2022-12-07T00:46:34;52.55;48.16;64.29;;
66461;Laerm;56838;52.506;4.762;2022-12-07T00:46:44;53.29;46.76;62.46;;
66461;Laerm;56838;52.506;4.762;2022-12-07T00:46:55;48.46;45.23;56.47;;
66461;Laerm;56838;52.506;4.762;2022-12-07T00:47:06;47.51;44.43;53.38;;
66461;Laerm;56838;52.506;4.762;2022-12-07T00:47:16;50.68;41.75;58.54;;
66461;Laerm;56838;52.506;4.762;2022-12-07T00:47:28;45.94;43.47;54.15;;
66461;Laerm;56838;52.506;4.762;2022-12-07T00:47:38;54.13;45.86;64.76;;
66461;Laerm;56838;52.506;4.762;2022-12-07T00:47:48;50.72;43.37;61.79;;
66461;Laerm;56838;52.506;4.762;2022-12-07T00:47:59;45.64;41.16;56.37;;
66461;Laerm;56838;52.506;4.762;2022-12-07T00:48:09;44.38;38.30;49.49;;
66461;Laerm;56838;52.506;4.762;2022-12-07T00:48:20;47.94;46.03;49.95;;
66461;Laerm;56838;52.506;4.762;2022-12-07T00:48:32;46.02;43.92;50.35;;
66461;Laerm;56838;52.506;4.762;2022-12-07T00:48:42;46.06;43.47;49.02;;
66461;Laerm;56838;52.506;4.762;2022-12-07T00:48:53;44.11;42.04;49.77;;
66461;Laerm;56838;52.506;4.762;2022-12-07T00:49:04;42.26;40.08;45.43;;
66461;Laerm;56838;52.506;4.762;2022-12-07T00:49:14;44.02;40.76;46.24;;
66461;Laerm;56838;52.506;4.762;2022-12-07T00:49:31;46.90;42.75;52.10;;
66461;Laerm;56838;52.506;4.762;2022-12-07T00:49:41;47.09;40.27;59.97;;
66461;Laerm;56838;52.506;4.762;2022-12-07T00:49:52;48.03;45.57;53.66;;
66461;Laerm;56838;52.506;4.762;2022-12-07T00:50:02;46.60;43.46;49.31;;
66461;Laerm;56838;52.506;4.762;2022-12-07T00:50:13;45.35;41.66;51.43;;
66461;Laerm;56838;52.506;4.762;2022-12-07T00:50:23;42.43;40.13;44.55;;
66461;Laerm;56838;52.506;4.762;2022-12-07T00:50:33;44.93;41.43;49.61;;
66461;Laerm;56838;52.506;4.762;2022-12-07T00:50:44;45.53;41.61;51.64;;
66461;Laerm;56838;52.506;4.762;2022-12-07T00:50:55;41.44;38.15;49.02;;
66461;Laerm;56838;52.506;4.762;2022-12-07T00:51:05;42.37;36.83;50.95;;
66461;Laerm;56838;52.506;4.762;2022-12-07T00:51:16;46.42;41.50;56.38;;
66461;Laerm;56838;52.506;4.762;2022-12-07T00:51:27;43.79;41.26;48.39;;
66461;Laerm;56838;52.506;4.762;2022-12-07T00:51:38;44.75;42.27;52.14;;
66461;Laerm;56838;52.506;4.762;2022-12-07T00:51:48;46.24;44.53;47.91;;
66461;Laerm;56838;52.506;4.762;2022-12-07T00:51:59;49.60;45.66;59.48;;
66461;Laerm;56838;52.506;4.762;2022-12-07T00:52:09;48.68;46.25;54.54;;
66461;Laerm;56838;52.506;4.762;2022-12-07T00:52:20;47.66;44.21;51.41;;
66461;Laerm;56838;52.506;4.762;2022-12-07T00:52:30;47.14;44.26;54.12;;
66461;Laerm;56838;52.506;4.762;2022-12-07T00:52:40;49.79;45.29;58.94;;
66461;Laerm;56838;52.506;4.762;2022-12-07T00:52:51;50.69;49.33;54.36;;
66461;Laerm;56838;52.506;4.762;2022-12-07T00:53:01;52.91;50.28;55.97;;
66461;Laerm;56838;52.506;4.762;2022-12-07T00:53:11;49.23;42.57;55.28;;
66461;Laerm;56838;52.506;4.762;2022-12-07T00:53:22;44.78;41.88;48.95;;
66461;Laerm;56838;52.506;4.762;2022-12-07T00:53:35;49.70;46.63;56.69;;
66461;Laerm;56838;52.506;4.762;2022-12-07T00:53:46;46.24;42.44;56.81;;
66461;Laerm;56838;52.506;4.762;2022-12-07T00:53:57;47.04;43.63;54.95;;
66461;Laerm;56838;52.506;4.762;2022-12-07T00:54:07;46.84;43.57;59.49;;
66461;Laerm;56838;52.506;4.762;2022-12-07T00:54:17;46.11;42.46;57.60;;
66461;Laerm;56838;52.506;4.762;2022-12-07T00:54:28;51.77;42.94;62.32;;
66461;Laerm;56838;52.506;4.762;2022-12-07T00:54:39;49.59;40.10;64.18;;
66461;Laerm;56838;52.506;4.762;2022-12-07T00:54:49;42.04;38.86;51.35;;
66461;Laerm;56838;52.506;4.762;2022-12-07T00:55:03;42.16;39.30;46.69;;
66461;Laerm;56838;52.506;4.762;2022-12-07T00:55:13;43.72;41.11;58.20;;
66461;Laerm;56838;52.506;4.762;2022-12-07T00:55:23;42.08;38.25;55.57;;
66461;Laerm;56838;52.506;4.762;2022-12-07T00:55:34;40.46;37.43;50.56;;
66461;Laerm;56838;52.506;4.762;2022-12-07T00:55:45;42.42;37.43;60.77;;
66461;Laerm;56838;52.506;4.762;2022-12-07T00:55:56;39.89;37.88;45.41;;
66461;Laerm;56838;52.506;4.762;2022-12-07T00:56:14;39.97;36.86;47.56;;
66461;Laerm;56838;52.506;4.762;2022-12-07T00:56:25;38.69;35.05;50.50;;
66461;Laerm;56838;52.506;4.762;2022-12-07T00:56:36;39.42;35.38;55.01;;
66461;Laerm;56838;52.506;4.762;2022-12-07T00:56:46;39.03;35.30;49.33;;
66461;Laerm;56838;52.506;4.762;2022-12-07T00:56:57;41.03;37.52;55.43;;
66461;Laerm;56838;52.506;4.762;2022-12-07T00:57:07;40.57;36.13;45.18;;
66461;Laerm;56838;52.506;4.762;2022-12-07T00:57:17;38.93;36.05;53.92;;
66461;Laerm;56838;52.506;4.762;2022-12-07T00:57:29;38.36;34.63;53.03;;
66461;Laerm;56838;52.506;4.762;2022-12-07T00:57:40;38.26;34.10;54.18;;
66461;Laerm;56838;52.506;4.762;2022-12-07T00:57:50;37.30;33.91;47.63;;
66461;Laerm;56838;52.506;4.762;2022-12-07T00:58:01;40.29;32.68;58.66;;
66461;Laerm;56838;52.506;4.762;2022-12-07T00:58:11;36.76;33.15;49.71;;
66461;Laerm;56838;52.506;4.762;2022-12-07T00:58:22;38.15;34.42;51.20;;
66461;Laerm;56838;52.506;4.762;2022-12-07T00:58:33;37.13;34.20;47.05;;
66461;Laerm;56838;52.506;4.762;2022-12-07T00:58:43;38.36;34.12;53.45;;
66461;Laerm;56838;52.506;4.762;2022-12-07T00:58:57;37.07;33.64;51.31;;
66461;Laerm;56838;52.506;4.762;2022-12-07T00:59:10;37.33;33.63;53.65;;
66461;Laerm;56838;52.506;4.762;2022-12-07T00:59:21;37.93;34.13;54.35;;
66461;Laerm;56838;52.506;4.762;2022-12-07T00:59:32;36.76;33.61;46.30;;
66461;Laerm;56838;52.506;4.762;2022-12-07T00:59:42;38.91;33.99;45.68;;
66461;Laerm;56838;52.506;4.762;2022-12-07T00:59:53;40.29;37.02;47.46;;
66461;Laerm;56838;52.506;4.762;2022-12-07T01:00:07;37.54;33.89;46.94;;
66461;Laerm;56838;52.506;4.762;2022-12-07T01:00:18;38.60;34.31;49.63;;
66461;Laerm;56838;52.506;4.762;2022-12-07T01:00:28;38.17;33.84;52.37;;
66461;Laerm;56838;52.506;4.762;2022-12-07T01:00:39;38.77;33.26;57.21;;
66461;Laerm;56838;52.506;4.762;2022-12-07T01:00:50;36.72;33.23;47.54;;
66461;Laerm;56838;52.506;4.762;2022-12-07T01:01:01;35.90;31.52;44.90;;
66461;Laerm;56838;52.506;4.762;2022-12-07T01:01:12;35.38;32.38;47.36;;
66461;Laerm;56838;52.506;4.762;2022-12-07T01:01:23;36.45;32.22;52.86;;
66461;Laerm;56838;52.506;4.762;2022-12-07T01:01:35;36.33;32.55;50.51;;